LDDU Airport Information

Runway Information
Runway 12 Length 10827 ft width 148 ft
Elevation 519 ft Threshold 488 ft Heading 118
Runway 30 Length 10827 ft Width 148 ft
Elevation 484 ft Threshold 0 ft Heading 298
Airport Frequencies
Type APP Name APP Frequency 123.6 MHZ
Type TWR Name TWR Frequency 129.5 MHZ
Airport Navaids
Type NDB Name Dubrovnik Frequency 397 KHZ
Type VOR-DME Name Dubrovnik Frequency 115400 KHZ
Type NDB Name Dubrovnik Frequency 414 KHZ
Type NDB Name Kolocep Frequency 318 KHZ
Airport Weather Information & NOTAM
ADDS - METARS form results

(2216 UTC 19 September 2018)
Data provider http://aviationweather.gov/metar/data/
 
METAR text: LDDU 192200Z 09004KT 360V140 CAVOK 20/17 Q1019 NOSIG
Conditions at: LDDU (DUBROVNIK-CILIPI, HR) observed 2200 UTC 19 September 2018
Temperature: 20.0°C (68°F)
Dewpoint: 17.0°C (63°F) [RH = 83%]
Pressure (altimeter): 30.09 inches Hg (1019.0 mb)
Winds: from the E (90 degrees) at 5 MPH (4 knots; 2.1 m/s)
Visibility: 6 or more miles (10+ km)
Ceiling: ceiling and visibility are OK
Clouds: unknown
Weather: no significant weather observed at this time

METAR text: LDDU 192130Z VRB02KT CAVOK 21/18 Q1019 NOSIG
Conditions at: LDDU (DUBROVNIK-CILIPI, HR) observed 2130 UTC 19 September 2018
Temperature: 21.0°C (70°F)
Dewpoint: 18.0°C (64°F) [RH = 83%]
Pressure (altimeter): 30.09 inches Hg (1019.0 mb)
Winds: variable direction winds at 2 MPH (2 knots; 1.0 m/s)
Visibility: 6 or more miles (10+ km)
Ceiling: ceiling and visibility are OK
Clouds: unknown
Weather: no significant weather observed at this time

Forecast for: LDDU (DUBROVNIK-CILIPI, HR)
Text: TAF LDDU 191725Z 1918/2018 28009KT CAVOK TX26/2010Z TN19/2001Z
Forecast period: 1800 UTC 19 September 2018 to 1800 UTC 20 September 2018
Forecast type: FROM: standard forecast or significant change
Winds: from the W (280 degrees) at 10 MPH (9 knots; 4.6 m/s)
Visibility: 6 or more miles 10+ km)
Ceiling: unknown
Clouds: missing
Weather: no significant weather forecast for this period
Text: BECMG 1918/1920 08006KT
Forecast period: 1800 UTC 19 September 2018 to 0900 UTC 20 September 2018
Forecast type: BECOMING: Conditions expected to become as follows by 2000 UTC 19 September 2018
Winds: from the E (80 degrees) at 7 MPH (6 knots; 3.1 m/s)
Visibility: 6 or more miles 10+ km)
Ceiling: unknown
Clouds: missing
Weather: no significant weather forecast for this period
Text: BECMG 2009/2011 28010KT
Forecast period: 0900 to 1800 UTC 20 September 2018
Forecast type: BECOMING: Conditions expected to become as follows by 1100 UTC 20 September 2018
Winds: from the W (280 degrees) at 12 MPH (10 knots; 5.1 m/s)
Visibility: 6 or more miles 10+ km)
Ceiling: unknown
Clouds: missing
Weather: no significant weather forecast for this period